Time;durP1;ratioP1;P1;durP2;ratioP2;P2;SDS_P1;SDS_P2;PMS_P1;PMS_P2;Temp;Humidity;BMP_temperature;BMP_pressure;BME280_temperature;BME280_humidity;BME280_pressure;Samples;Min_cycle;Max_cycle;Signal;HPM_P1;HPM_P2
2023/04/04 00:04:53;;;;;;;7.45;5.13;;;;;;;;;;10147025;28;20052;-66
2023/04/04 00:09:46;;;;;;;13.23;5.35;;;;;;;;;;10146361;28;20087;-65
2023/04/04 00:14:40;;;;;;;11.25;5.22;;;;;;;;;;10146128;28;20044;-66
2023/04/04 00:19:33;;;;;;;7.65;5.15;;;;;;;;;;10146656;28;20505;-65
2023/04/04 00:24:26;;;;;;;13.68;6.32;;;;;;;;;;10146841;28;20072;-65
2023/04/04 00:29:20;;;;;;;9.50;6.05;;;;;;;;;;10146682;28;20516;-65
2023/04/04 00:34:13;;;;;;;10.52;5.53;;;;;;;;;;10146010;28;20044;-64
2023/04/04 00:39:07;;;;;;;11.48;4.97;;;;;;;;;;10145660;28;20451;-65
2023/04/04 00:44:00;;;;;;;7.00;4.40;;;;;;;;;;10145252;28;20470;-65
2023/04/04 00:48:54;;;;;;;10.05;4.65;;;;;;;;;;10145767;28;20555;-65
2023/04/04 00:53:48;;;;;;;6.90;5.05;;;;;;;;;;10145375;28;20489;-65
2023/04/04 00:58:42;;;;;;;6.95;4.63;;;;;;;;;;10145162;28;20040;-64
2023/04/04 01:03:35;;;;;;;7.05;4.82;;;;;;;;;;10144527;28;20036;-65
2023/04/04 01:08:30;;;;;;;10.57;5.60;;;;;;;;;;10125917;28;20049;-64
2023/04/04 01:13:24;;;;;;;7.80;4.85;;;;;;;;;;10126867;28;20147;-65
2023/04/04 01:18:20;;;;;;;8.98;5.88;;;;;;;;;;10127338;28;20049;-65
2023/04/04 01:23:14;;;;;;;12.90;6.55;;;;;;;;;;10127120;28;20040;-65
2023/04/04 01:28:07;;;;;;;15.15;6.97;;;;;;;;;;10131771;28;20416;-65
2023/04/04 01:33:21;;;;;;;10.85;7.75;;;;;;;;;;10134683;28;20052;-64
2023/04/04 01:38:27;;;;;;;15.13;6.28;;;;;;;;;;10131396;28;20048;-64
2023/04/04 01:43:20;;;;;;;13.02;8.02;;;;;;;;;;10135258;28;20050;-64
2023/04/04 01:48:15;;;;;;;9.40;5.50;;;;;;;;;;10152483;28;20052;-64
2023/04/04 01:53:13;;;;;;;8.40;4.97;;;;;;;;;;10133963;28;20497;-65
2023/04/04 01:58:07;;;;;;;10.10;4.97;;;;;;;;;;10133354;28;20044;-64
2023/04/04 02:03:01;;;;;;;6.45;4.68;;;;;;;;;;10133017;28;20053;-65
2023/04/04 02:07:54;;;;;;;8.05;4.82;;;;;;;;;;10133185;28;20110;-65
2023/04/04 02:13:05;;;;;;;6.17;4.47;;;;;;;;;;10128550;28;20496;-64
2023/04/04 02:17:59;;;;;;;12.93;5.28;;;;;;;;;;10133329;28;20102;-64
2023/04/04 02:22:56;;;;;;;5.10;4.30;;;;;;;;;;10133490;28;20074;-64
2023/04/04 02:27:50;;;;;;;6.60;4.65;;;;;;;;;;10150705;28;20052;-64
2023/04/04 02:32:43;;;;;;;8.40;5.20;;;;;;;;;;10150416;28;20055;-64
2023/04/04 02:37:40;;;;;;;10.57;4.88;;;;;;;;;;10132414;28;20054;-65
2023/04/04 02:42:35;;;;;;;10.43;7.40;;;;;;;;;;10146627;28;20044;-64
2023/04/04 02:47:28;;;;;;;8.65;5.30;;;;;;;;;;10143202;28;20101;-65
2023/04/04 02:52:22;;;;;;;9.45;5.38;;;;;;;;;;10149782;28;20044;-65
2023/04/04 02:57:16;;;;;;;8.07;4.55;;;;;;;;;;10131558;28;20094;-65
2023/04/04 03:02:11;;;;;;;6.38;5.03;;;;;;;;;;10155554;28;20427;-64
2023/04/04 03:07:05;;;;;;;11.18;5.65;;;;;;;;;;10131309;28;20577;-65
2023/04/04 03:11:59;;;;;;;7.35;4.65;;;;;;;;;;10148579;28;20044;-65
2023/04/04 03:16:53;;;;;;;6.28;4.68;;;;;;;;;;10130715;28;20462;-66
2023/04/04 03:21:47;;;;;;;7.57;4.80;;;;;;;;;;10130477;28;20048;-66
2023/04/04 03:26:41;;;;;;;6.93;5.60;;;;;;;;;;10130630;28;20098;-66
2023/04/04 03:31:36;;;;;;;11.20;6.10;;;;;;;;;;10130724;28;20143;-66
2023/04/04 03:36:29;;;;;;;5.65;4.90;;;;;;;;;;10129740;28;20052;-65
2023/04/04 03:41:24;;;;;;;13.00;6.03;;;;;;;;;;10130542;28;20139;-66
2023/04/04 03:46:17;;;;;;;8.43;4.65;;;;;;;;;;10147722;28;20052;-66
2023/04/04 03:51:12;;;;;;;6.65;4.30;;;;;;;;;;10129295;28;20493;-66
2023/04/04 03:56:08;;;;;;;9.30;4.72;;;;;;;;;;10129101;28;20135;-66
2023/04/04 04:01:01;;;;;;;6.72;4.75;;;;;;;;;;10129970;28;20053;-66
2023/04/04 04:05:56;;;;;;;10.00;5.55;;;;;;;;;;10146429;28;20421;-65
2023/04/04 04:10:49;;;;;;;11.13;5.82;;;;;;;;;;10128475;28;20036;-65
2023/04/04 04:15:42;;;;;;;4.90;4.40;;;;;;;;;;10155190;28;20048;-65
2023/04/04 04:20:42;;;;;;;7.88;5.05;;;;;;;;;;10129315;28;20079;-65
2023/04/04 04:25:36;;;;;;;7.28;5.05;;;;;;;;;;10128176;28;20387;-65
2023/04/04 04:30:40;;;;;;;9.93;4.55;;;;;;;;;;10124381;28;20041;-65
2023/04/04 04:35:40;;;;;;;9.38;4.15;;;;;;;;;;10124291;28;20102;-65
2023/04/04 04:40:35;;;;;;;9.35;4.30;;;;;;;;;;10128611;28;20083;-65
2023/04/04 04:45:37;;;;;;;21.17;4.82;;;;;;;;;;10128017;28;20059;-65
2023/04/04 04:50:33;;;;;;;8.77;4.28;;;;;;;;;;10126894;28;20462;-65
2023/04/04 04:55:26;;;;;;;11.25;6.10;;;;;;;;;;10131413;28;20101;-65
2023/04/04 05:00:31;;;;;;;9.60;4.43;;;;;;;;;;10129915;28;20561;-66
2023/04/04 05:05:25;;;;;;;12.88;4.75;;;;;;;;;;10129675;28;20064;-65
2023/04/04 05:10:25;;;;;;;5.70;4.47;;;;;;;;;;10117997;28;20410;-65
2023/04/04 05:15:20;;;;;;;6.10;4.68;;;;;;;;;;10130337;28;20106;-65
2023/04/04 05:20:16;;;;;;;5.40;3.97;;;;;;;;;;10124729;28;20128;-66
2023/04/04 05:25:13;;;;;;;5.07;4.13;;;;;;;;;;10120599;28;20080;-66
2023/04/04 05:30:11;;;;;;;5.95;4.40;;;;;;;;;;10134771;28;20078;-66
2023/04/04 05:35:16;;;;;;;7.60;4.25;;;;;;;;;;10126118;28;20140;-64
2023/04/04 05:40:10;;;;;;;12.82;3.60;;;;;;;;;;10143864;28;20044;-64
2023/04/04 05:45:05;;;;;;;11.18;3.75;;;;;;;;;;10144673;28;20056;-64
2023/04/04 05:49:58;;;;;;;10.82;3.67;;;;;;;;;;10144038;28;20041;-64
2023/04/04 05:54:51;;;;;;;7.45;4.20;;;;;;;;;;10121702;28;20071;-64
2023/04/04 05:59:53;;;;;;;5.97;3.95;;;;;;;;;;10121661;28;20084;-64
2023/04/04 06:04:47;;;;;;;7.70;4.15;;;;;;;;;;10143710;28;20045;-64
2023/04/04 06:09:45;;;;;;;4.50;3.47;;;;;;;;;;10126299;28;20058;-65
2023/04/04 06:14:39;;;;;;;4.63;2.63;;;;;;;;;;10131519;28;20049;-65
2023/04/04 06:19:33;;;;;;;4.55;3.33;;;;;;;;;;10132881;28;20501;-65
2023/04/04 06:24:40;;;;;;;7.03;3.13;;;;;;;;;;10145015;28;20080;-65
2023/04/04 06:29:33;;;;;;;2.70;2.30;;;;;;;;;;10132256;28;20083;-65
2023/04/04 06:34:27;;;;;;;8.20;3.45;;;;;;;;;;10128960;28;20076;-65
2023/04/04 06:39:23;;;;;;;14.25;4.07;;;;;;;;;;10129630;28;20056;-65
2023/04/04 06:44:19;;;;;;;7.55;5.57;;;;;;;;;;10130396;28;20131;-65
2023/04/04 06:49:13;;;;;;;11.30;5.43;;;;;;;;;;10132045;28;20150;-65
2023/04/04 06:54:06;;;;;;;9.98;4.32;;;;;;;;;;10132312;28;20420;-65
2023/04/04 06:59:00;;;;;;;5.05;3.45;;;;;;;;;;10121704;28;20044;-65
2023/04/04 07:03:54;;;;;;;6.38;3.72;;;;;;;;;;10132900;28;20060;-64
2023/04/04 07:08:47;;;;;;;7.28;4.00;;;;;;;;;;10150319;28;20115;-65
2023/04/04 07:13:41;;;;;;;5.38;3.22;;;;;;;;;;10148898;28;20060;-65
2023/04/04 07:18:34;;;;;;;5.53;3.83;;;;;;;;;;10149191;28;20558;-64
2023/04/04 07:23:28;;;;;;;7.60;3.33;;;;;;;;;;10147617;28;20072;-64
2023/04/04 07:28:22;;;;;;;5.38;2.88;;;;;;;;;;10148166;28;20057;-65
2023/04/04 07:33:16;;;;;;;3.90;3.30;;;;;;;;;;10145992;28;20098;-65
2023/04/04 07:38:09;;;;;;;4.90;3.28;;;;;;;;;;10147893;28;20059;-65
2023/04/04 07:43:02;;;;;;;5.65;2.38;;;;;;;;;;10148323;28;20415;-65
2023/04/04 07:47:55;;;;;;;4.82;2.60;;;;;;;;;;10139028;28;20048;-65
2023/04/04 07:52:54;;;;;;;15.45;2.88;;;;;;;;;;10147505;28;20075;-65
2023/04/04 07:57:47;;;;;;;6.43;2.87;;;;;;;;;;10147407;28;20465;-65
2023/04/04 08:02:44;;;;;;;4.82;2.42;;;;;;;;;;10146997;28;20056;-65
2023/04/04 08:07:38;;;;;;;6.20;2.80;;;;;;;;;;10142774;28;20155;-65
2023/04/04 08:12:31;;;;;;;6.22;2.40;;;;;;;;;;10146537;28;20151;-65
2023/04/04 08:17:25;;;;;;;3.63;2.17;;;;;;;;;;10145588;28;20052;-65
2023/04/04 08:22:18;;;;;;;5.57;2.53;;;;;;;;;;10133879;28;20485;-65
2023/04/04 08:27:13;;;;;;;3.88;2.35;;;;;;;;;;10132390;28;20110;-63
2023/04/04 08:32:06;;;;;;;3.30;2.30;;;;;;;;;;10138433;28;20048;-63
2023/04/04 08:36:59;;;;;;;5.00;2.30;;;;;;;;;;10133129;28;20127;-63
2023/04/04 08:42:01;;;;;;;7.07;2.60;;;;;;;;;;10136676;28;20052;-63
2023/04/04 08:46:56;;;;;;;6.72;2.60;;;;;;;;;;10124547;28;20106;-62
2023/04/04 08:51:51;;;;;;;3.33;2.55;;;;;;;;;;10137018;28;20057;-64
2023/04/04 08:56:45;;;;;;;4.15;2.70;;;;;;;;;;10097214;28;20139;-64
2023/04/04 09:01:38;;;;;;;5.82;2.00;;;;;;;;;;10133818;28;20048;-63
2023/04/04 09:06:32;;;;;;;7.97;1.67;;;;;;;;;;10104322;28;20489;-63
2023/04/04 09:11:26;;;;;;;5.10;2.10;;;;;;;;;;10131491;28;20151;-65
2023/04/04 09:16:19;;;;;;;2.08;1.60;;;;;;;;;;10121904;28;20060;-64
2023/04/04 09:21:12;;;;;;;3.88;2.22;;;;;;;;;;10125975;28;20055;-63
2023/04/04 09:26:06;;;;;;;11.55;2.33;;;;;;;;;;10117275;28;20049;-63
2023/04/04 09:31:01;;;;;;;3.53;1.83;;;;;;;;;;10124807;28;20103;-63
2023/04/04 09:35:57;;;;;;;9.13;3.35;;;;;;;;;;10124075;28;20066;-63
2023/04/04 09:40:51;;;;;;;3.67;1.83;;;;;;;;;;10115369;28;20106;-63
2023/04/04 09:45:44;;;;;;;4.63;1.63;;;;;;;;;;10124145;28;20049;-63
2023/04/04 09:50:45;;;;;;;7.05;1.77;;;;;;;;;;10138807;28;20079;-63
2023/04/04 09:55:38;;;;;;;3.75;1.77;;;;;;;;;;10108560;28;20070;-62
2023/04/04 10:00:37;;;;;;;8.75;2.42;;;;;;;;;;10121570;28;20041;-62
2023/04/04 10:05:31;;;;;;;8.25;2.45;;;;;;;;;;10127435;28;20041;-63
2023/04/04 10:10:30;;;;;;;5.38;1.88;;;;;;;;;;10128627;28;20099;-62
2023/04/04 10:15:24;;;;;;;2.50;1.70;;;;;;;;;;10146498;28;20500;-63
2023/04/04 10:20:18;;;;;;;8.88;2.75;;;;;;;;;;10145088;28;20056;-62
2023/04/04 10:25:13;;;;;;;7.93;2.20;;;;;;;;;;10129578;28;20448;-63
2023/04/04 10:30:10;;;;;;;3.67;1.70;;;;;;;;;;10137003;28;20505;-63
2023/04/04 10:35:09;;;;;;;4.15;2.47;;;;;;;;;;10148545;28;20107;-62
2023/04/04 10:40:12;;;;;;;24.13;4.32;;;;;;;;;;10131698;28;20640;-62
2023/04/04 10:45:09;;;;;;;6.72;1.98;;;;;;;;;;10149002;28;20053;-62
2023/04/04 10:50:14;;;;;;;6.03;1.90;;;;;;;;;;10143838;28;20087;-62
2023/04/04 10:55:09;;;;;;;6.05;2.05;;;;;;;;;;10147155;28;20042;-62
2023/04/04 11:00:13;;;;;;;9.13;2.20;;;;;;;;;;10147325;28;20057;-62
2023/04/04 11:05:19;;;;;;;5.93;1.80;;;;;;;;;;10140846;28;20048;-62
2023/04/04 11:10:19;;;;;;;2.60;1.63;;;;;;;;;;10149306;28;20152;-62
2023/04/04 11:15:14;;;;;;;5.47;1.98;;;;;;;;;;10133514;28;20477;-62
2023/04/04 11:20:08;;;;;;;2.67;1.75;;;;;;;;;;10148564;28;20037;-61
2023/04/04 11:25:40;;;;;;;2.75;2.22;;;;;;;;;;10149063;28;20048;-62
2023/04/04 11:30:47;;;;;;;7.90;2.03;;;;;;;;;;10052995;28;20079;-62
2023/04/04 11:35:47;;;;;;;3.55;1.27;;;;;;;;;;10148431;28;20076;-62
2023/04/04 11:40:41;;;;;;;6.35;2.00;;;;;;;;;;10146622;28;20413;-62
2023/04/04 11:45:36;;;;;;;5.10;2.00;;;;;;;;;;10129706;28;20067;-62
2023/04/04 11:50:37;;;;;;;3.53;1.48;;;;;;;;;;10146544;28;20497;-62
2023/04/04 11:55:31;;;;;;;5.72;1.70;;;;;;;;;;10130341;28;20099;-62
2023/04/04 12:00:33;;;;;;;2.10;1.75;;;;;;;;;;10148240;28;20593;-62
2023/04/04 12:05:27;;;;;;;6.57;2.55;;;;;;;;;;10118318;28;20136;-62
2023/04/04 12:10:21;;;;;;;2.20;1.63;;;;;;;;;;10145435;28;20087;-62
2023/04/04 12:15:15;;;;;;;3.45;2.28;;;;;;;;;;10145954;28;20048;-62
2023/04/04 12:20:10;;;;;;;3.25;1.98;;;;;;;;;;10130037;28;20393;-62
2023/04/04 12:25:06;;;;;;;4.95;2.00;;;;;;;;;;10151095;28;20763;-63
2023/04/04 12:30:01;;;;;;;4.32;3.20;;;;;;;;;;10142945;28;20097;-62
2023/04/04 12:35:00;;;;;;;3.30;1.90;;;;;;;;;;10133988;28;20044;-62
2023/04/04 12:39:52;;;;;;;3.10;1.40;;;;;;;;;;10127307;28;20051;-62
2023/04/04 12:44:47;;;;;;;4.85;2.47;;;;;;;;;;10123948;28;20052;-62
2023/04/04 12:49:43;;;;;;;2.72;2.00;;;;;;;;;;10135294;28;20055;-63
2023/04/04 12:54:39;;;;;;;5.45;1.70;;;;;;;;;;10152257;28;20519;-63
2023/04/04 12:59:34;;;;;;;4.22;2.40;;;;;;;;;;10121338;28;20508;-62
2023/04/04 13:04:27;;;;;;;3.47;2.13;;;;;;;;;;10131209;28;20500;-62
2023/04/04 13:09:22;;;;;;;4.80;2.15;;;;;;;;;;10120477;28;20040;-62
2023/04/04 13:14:16;;;;;;;3.72;2.50;;;;;;;;;;10127423;28;20060;-62
2023/04/04 13:19:09;;;;;;;8.55;3.28;;;;;;;;;;10137080;28;20493;-62
2023/04/04 13:24:04;;;;;;;4.65;1.80;;;;;;;;;;10136018;28;20098;-62
2023/04/04 13:28:58;;;;;;;6.80;1.42;;;;;;;;;;10137616;28;20056;-62
2023/04/04 13:33:52;;;;;;;4.00;1.98;;;;;;;;;;10131774;28;20044;-61
2023/04/04 13:38:45;;;;;;;4.55;1.90;;;;;;;;;;10142116;28;20476;-62
2023/04/04 13:43:39;;;;;;;3.03;2.00;;;;;;;;;;10131809;28;20778;-61
2023/04/04 13:48:34;;;;;;;8.23;1.92;;;;;;;;;;10064681;28;1908818;-60
2023/04/04 13:53:28;;;;;;;4.50;2.13;;;;;;;;;;10125999;28;20083;-63
2023/04/04 13:58:22;;;;;;;6.25;3.08;;;;;;;;;;10124694;28;20052;-61
2023/04/04 14:03:16;;;;;;;5.30;3.78;;;;;;;;;;10116079;28;20139;-61
2023/04/04 14:08:10;;;;;;;4.32;3.00;;;;;;;;;;10115571;28;20044;-61
2023/04/04 14:13:04;;;;;;;14.73;3.15;;;;;;;;;;10135411;28;20055;-60
2023/04/04 14:17:57;;;;;;;7.10;2.53;;;;;;;;;;10135797;28;20059;-61
2023/04/04 14:22:52;;;;;;;3.50;2.67;;;;;;;;;;10129541;28;20080;-60
2023/04/04 14:27:45;;;;;;;7.82;2.50;;;;;;;;;;10130495;28;20140;-63
2023/04/04 14:32:38;;;;;;;3.67;2.25;;;;;;;;;;10126609;28;20188;-61
2023/04/04 14:37:32;;;;;;;2.28;2.05;;;;;;;;;;10142896;28;20068;-63
2023/04/04 14:42:26;;;;;;;4.80;2.78;;;;;;;;;;10134755;28;20048;-60
2023/04/04 14:47:20;;;;;;;2.67;2.17;;;;;;;;;;10143666;28;20136;-62
2023/04/04 14:52:14;;;;;;;4.03;2.35;;;;;;;;;;10142230;28;20052;-62
2023/04/04 14:57:08;;;;;;;5.97;2.70;;;;;;;;;;10140382;28;20044;-61
2023/04/04 15:02:01;;;;;;;3.00;2.70;;;;;;;;;;10135819;28;20055;-61
2023/04/04 15:06:59;;;;;;;6.88;2.85;;;;;;;;;;10139567;28;20064;-60
2023/04/04 15:11:53;;;;;;;5.67;2.60;;;;;;;;;;10136769;28;20068;-61
2023/04/04 15:16:46;;;;;;;4.13;2.33;;;;;;;;;;10140212;28;20052;-61
2023/04/04 15:21:39;;;;;;;5.38;2.03;;;;;;;;;;10133145;28;20486;-60
2023/04/04 15:26:33;;;;;;;5.68;2.13;;;;;;;;;;10134543;28;20470;-61
2023/04/04 15:31:25;;;;;;;4.10;2.20;;;;;;;;;;10128576;28;20049;-61
2023/04/04 15:36:21;;;;;;;5.13;2.50;;;;;;;;;;10125938;28;20056;-60
2023/04/04 15:41:13;;;;;;;4.10;1.90;;;;;;;;;;10130725;28;20044;-61
2023/04/04 15:46:07;;;;;;;3.65;2.45;;;;;;;;;;10113361;28;20080;-59
2023/04/04 15:51:02;;;;;;;4.57;1.90;;;;;;;;;;10141667;28;20079;-62
2023/04/04 15:55:56;;;;;;;5.85;2.25;;;;;;;;;;10131203;28;20075;-60
2023/04/04 16:00:49;;;;;;;6.70;2.60;;;;;;;;;;10132734;28;20048;-60
2023/04/04 16:05:43;;;;;;;3.50;2.70;;;;;;;;;;10117072;28;21430;-63
2023/04/04 16:10:37;;;;;;;6.85;2.38;;;;;;;;;;10131335;28;20055;-60
2023/04/04 16:15:31;;;;;;;4.82;2.63;;;;;;;;;;10134711;28;20116;-62
2023/04/04 16:20:25;;;;;;;5.63;2.75;;;;;;;;;;10131530;28;20052;-62
2023/04/04 16:25:20;;;;;;;4.72;2.72;;;;;;;;;;10130013;28;20408;-62
2023/04/04 16:30:15;;;;;;;4.60;2.70;;;;;;;;;;10127872;28;20091;-62
2023/04/04 16:35:09;;;;;;;3.95;2.33;;;;;;;;;;10142100;28;20044;-62
2023/04/04 16:40:02;;;;;;;5.55;2.47;;;;;;;;;;10144856;28;20386;-63
2023/04/04 16:44:56;;;;;;;5.32;2.88;;;;;;;;;;10128228;28;20052;-60
2023/04/04 16:49:50;;;;;;;2.75;2.50;;;;;;;;;;10145763;28;20087;-62
2023/04/04 16:54:44;;;;;;;4.63;2.28;;;;;;;;;;10145029;28;20133;-62
2023/04/04 16:59:38;;;;;;;4.25;2.25;;;;;;;;;;10145510;28;20048;-62
2023/04/04 17:04:32;;;;;;;4.95;2.10;;;;;;;;;;10146279;28;20461;-62
2023/04/04 17:09:26;;;;;;;6.78;2.83;;;;;;;;;;10145925;28;20060;-62
2023/04/04 17:14:20;;;;;;;3.80;2.88;;;;;;;;;;10127533;28;20045;-61
2023/04/04 17:19:13;;;;;;;4.22;3.20;;;;;;;;;;10145033;28;20053;-62
2023/04/04 17:24:06;;;;;;;3.72;2.75;;;;;;;;;;10145522;28;20045;-61
2023/04/04 17:28:59;;;;;;;3.80;2.88;;;;;;;;;;10127189;28;20058;-61
2023/04/04 17:33:52;;;;;;;5.85;2.92;;;;;;;;;;10144956;28;20123;-62
2023/04/04 17:38:46;;;;;;;6.03;3.05;;;;;;;;;;10139088;28;20068;-62
2023/04/04 17:43:40;;;;;;;6.72;3.30;;;;;;;;;;10144434;28;20041;-62
2023/04/04 17:48:35;;;;;;;4.95;3.33;;;;;;;;;;10144132;28;20052;-61
2023/04/04 17:53:29;;;;;;;5.97;3.33;;;;;;;;;;10144254;28;20049;-62
2023/04/04 17:58:24;;;;;;;3.78;3.28;;;;;;;;;;10136972;28;20072;-62
2023/04/04 18:03:21;;;;;;;12.73;4.82;;;;;;;;;;10144295;28;20048;-62
2023/04/04 18:08:15;;;;;;;9.00;4.97;;;;;;;;;;10143706;28;20040;-62
2023/04/04 18:13:08;;;;;;;13.02;9.35;;;;;;;;;;10151341;28;20048;-62
2023/04/04 18:18:02;;;;;;;9.18;5.53;;;;;;;;;;10150989;28;20052;-61
2023/04/04 18:22:56;;;;;;;10.50;6.47;;;;;;;;;;10151568;28;20079;-62
2023/04/04 18:27:49;;;;;;;7.30;4.82;;;;;;;;;;10150170;28;20072;-62
2023/04/04 18:32:42;;;;;;;6.93;4.65;;;;;;;;;;10146742;28;20048;-64
2023/04/04 18:37:36;;;;;;;5.97;4.47;;;;;;;;;;10148700;28;20090;-62
2023/04/04 18:42:31;;;;;;;8.95;4.45;;;;;;;;;;10140603;28;20569;-61
2023/04/04 18:47:25;;;;;;;7.75;6.53;;;;;;;;;;10130597;28;20064;-61
2023/04/04 18:52:20;;;;;;;9.77;7.13;;;;;;;;;;10139320;28;20041;-61
2023/04/04 18:57:13;;;;;;;11.23;6.95;;;;;;;;;;10139661;28;20045;-63
2023/04/04 19:02:07;;;;;;;9.68;6.60;;;;;;;;;;10134255;28;20048;-63
2023/04/04 19:07:07;;;;;;;10.82;8.05;;;;;;;;;;10142912;28;20048;-63
2023/04/04 19:12:17;;;;;;;12.25;10.95;;;;;;;;;;10129885;28;20044;-62
2023/04/04 19:17:14;;;;;;;14.23;6.97;;;;;;;;;;10139583;28;20135;-63
2023/04/04 19:22:08;;;;;;;12.88;8.77;;;;;;;;;;10145334;28;20489;-62
2023/04/04 19:27:02;;;;;;;12.80;8.82;;;;;;;;;;10136945;28;20048;-62
2023/04/04 19:32:11;;;;;;;11.27;8.40;;;;;;;;;;10132223;28;20105;-62
2023/04/04 19:37:04;;;;;;;11.93;8.35;;;;;;;;;;10132463;28;20525;-62
2023/04/04 19:42:00;;;;;;;7.07;6.38;;;;;;;;;;10137801;28;20044;-62
2023/04/04 19:46:55;;;;;;;11.35;6.90;;;;;;;;;;10142960;28;20519;-62
2023/04/04 19:51:52;;;;;;;8.90;7.22;;;;;;;;;;10138222;28;20044;-62
2023/04/04 19:56:47;;;;;;;10.68;8.73;;;;;;;;;;10137724;28;20063;-61
2023/04/04 20:01:42;;;;;;;15.40;8.40;;;;;;;;;;10124547;28;20106;-62
2023/04/04 20:06:55;;;;;;;18.35;9.27;;;;;;;;;;10138231;28;20059;-62
2023/04/04 20:11:49;;;;;;;12.48;8.90;;;;;;;;;;10138367;28;20044;-63
2023/04/04 20:16:43;;;;;;;16.23;11.00;;;;;;;;;;10136619;28;20516;-62
2023/04/04 20:21:36;;;;;;;10.15;8.77;;;;;;;;;;10134345;28;20499;-62
2023/04/04 20:26:37;;;;;;;13.85;8.63;;;;;;;;;;10136355;28;20037;-62
2023/04/04 20:31:35;;;;;;;13.65;9.43;;;;;;;;;;10130961;28;20053;-63
2023/04/04 20:36:33;;;;;;;14.27;9.35;;;;;;;;;;10120288;28;20045;-62
2023/04/04 20:41:27;;;;;;;10.93;8.98;;;;;;;;;;10123804;28;20456;-62
2023/04/04 20:46:22;;;;;;;11.23;8.73;;;;;;;;;;10138877;28;20082;-62
2023/04/04 20:51:29;;;;;;;11.63;8.57;;;;;;;;;;10137688;28;20491;-62
2023/04/04 20:56:45;;;;;;;9.30;5.68;;;;;;;;;;10126786;28;20061;-62
2023/04/04 21:01:38;;;;;;;8.60;5.25;;;;;;;;;;10134105;28;20089;-62
2023/04/04 21:06:32;;;;;;;13.68;5.82;;;;;;;;;;10113658;28;20060;-63
2023/04/04 21:11:32;;;;;;;7.55;5.22;;;;;;;;;;10130293;28;20049;-62
2023/04/04 21:16:28;;;;;;;8.73;6.07;;;;;;;;;;10131154;28;20140;-62
2023/04/04 21:21:22;;;;;;;13.02;9.25;;;;;;;;;;10136210;28;20060;-62
2023/04/04 21:26:25;;;;;;;12.07;8.77;;;;;;;;;;10139618;28;20147;-62
2023/04/04 21:31:20;;;;;;;12.73;8.80;;;;;;;;;;10123442;28;20049;-63
2023/04/04 21:36:22;;;;;;;17.88;8.52;;;;;;;;;;10141479;28;20044;-63
2023/04/04 21:41:28;;;;;;;16.10;8.93;;;;;;;;;;10143502;28;20048;-63
2023/04/04 21:46:26;;;;;;;11.40;7.93;;;;;;;;;;10150095;28;20139;-63
2023/04/04 21:51:19;;;;;;;13.63;7.32;;;;;;;;;;10138289;28;20083;-63
2023/04/04 21:56:13;;;;;;;9.60;6.53;;;;;;;;;;10152088;28;20052;-63
2023/04/04 22:01:06;;;;;;;10.60;7.00;;;;;;;;;;10148300;28;20499;-63
2023/04/04 22:06:00;;;;;;;10.43;7.90;;;;;;;;;;10152077;28;20440;-63
2023/04/04 22:10:56;;;;;;;10.90;7.53;;;;;;;;;;10153357;28;20119;-63
2023/04/04 22:15:52;;;;;;;11.02;7.65;;;;;;;;;;10151615;28;20044;-63
2023/04/04 22:20:53;;;;;;;12.60;7.68;;;;;;;;;;10152087;28;20049;-63
2023/04/04 22:25:46;;;;;;;9.25;6.05;;;;;;;;;;10136503;28;20135;-63
2023/04/04 22:30:40;;;;;;;7.38;6.30;;;;;;;;;;10134239;28;20056;-63
2023/04/04 22:35:35;;;;;;;10.35;7.22;;;;;;;;;;10151658;28;20048;-63
2023/04/04 22:40:30;;;;;;;7.85;6.32;;;;;;;;;;10150733;28;20048;-63
2023/04/04 22:45:24;;;;;;;10.70;8.80;;;;;;;;;;10150321;28;20056;-62
2023/04/04 22:50:25;;;;;;;12.07;8.68;;;;;;;;;;10149118;28;20048;-63
2023/04/04 22:55:20;;;;;;;9.15;6.50;;;;;;;;;;10149979;28;20036;-63
2023/04/04 23:00:13;;;;;;;9.60;6.55;;;;;;;;;;10149871;28;20033;-63
2023/04/04 23:05:09;;;;;;;6.72;6.05;;;;;;;;;;10150333;28;20098;-62
2023/04/04 23:10:03;;;;;;;6.82;5.10;;;;;;;;;;10149787;28;20049;-63
2023/04/04 23:15:02;;;;;;;7.75;5.80;;;;;;;;;;10148230;28;20056;-62
2023/04/04 23:19:56;;;;;;;9.57;6.05;;;;;;;;;;10148232;28;20049;-62
2023/04/04 23:24:49;;;;;;;8.23;5.15;;;;;;;;;;10148432;28;20033;-62
2023/04/04 23:29:42;;;;;;;6.05;4.88;;;;;;;;;;10144973;28;20059;-62
2023/04/04 23:34:35;;;;;;;7.68;4.78;;;;;;;;;;10148770;28;20048;-62
2023/04/04 23:39:28;;;;;;;9.98;5.60;;;;;;;;;;10148948;28;20087;-62
2023/04/04 23:44:22;;;;;;;8.48;5.70;;;;;;;;;;10147948;28;20497;-62
2023/04/04 23:49:15;;;;;;;7.15;5.43;;;;;;;;;;10147939;28;20049;-62
2023/04/04 23:54:10;;;;;;;7.97;5.65;;;;;;;;;;10147487;28;20122;-62
2023/04/04 23:59:04;;;;;;;8.88;5.63;;;;;;;;;;10147432;28;20045;-62
